createdAt,value
2022-11-08T00:05:20.314Z,8.08
2022-11-08T00:11:42.777Z,8.08
2022-11-08T00:17:44.516Z,8.05
2022-11-08T00:24:05.516Z,8.04
2022-11-08T00:30:17.269Z,8.02
2022-11-08T00:36:48.178Z,7.93
2022-11-08T00:43:10.975Z,7.93
2022-11-08T00:48:44.203Z,7.91
2022-11-08T00:55:07.088Z,7.86
2022-11-08T01:01:51.626Z,7.86
2022-11-08T01:08:15.123Z,7.84
2022-11-08T01:14:56.574Z,7.80
2022-11-08T01:21:38.840Z,7.83
2022-11-08T01:28:24.661Z,7.83
2022-11-08T01:34:49.369Z,7.80
2022-11-08T01:40:18.866Z,7.82
2022-11-08T01:46:40.099Z,7.81
2022-11-08T01:52:41.977Z,7.78
2022-11-08T01:58:40.347Z,7.82
2022-11-08T02:04:06.829Z,7.83
2022-11-08T02:10:18.290Z,7.80
2022-11-08T02:16:01.468Z,7.79
2022-11-08T02:22:09.373Z,7.82
2022-11-08T02:27:56.165Z,7.86
2022-11-08T02:33:59.166Z,7.86
2022-11-08T02:39:23.997Z,7.88
2022-11-08T02:44:58.338Z,7.89
2022-11-08T02:50:19.623Z,7.89
2022-11-08T02:56:24.375Z,7.87
2022-11-08T03:02:34.866Z,7.89
2022-11-08T03:08:06.566Z,7.91
2022-11-08T03:13:37.390Z,7.89
2022-11-08T03:19:30.165Z,7.89
2022-11-08T03:24:53.624Z,7.87
2022-11-08T03:30:42.673Z,7.81
2022-11-08T03:37:23.937Z,7.72
2022-11-08T03:44:05.329Z,7.72
2022-11-08T03:50:09.357Z,7.67
2022-11-08T03:56:29.847Z,7.61
2022-11-08T04:02:01.704Z,7.53
2022-11-08T04:08:02.237Z,7.43
2022-11-08T04:14:04.145Z,7.31
2022-11-08T04:20:25.256Z,7.23
2022-11-08T04:26:39.304Z,7.24
2022-11-08T04:32:22.229Z,7.25
2022-11-08T04:37:54.678Z,7.24
2022-11-08T04:43:36.125Z,7.27
2022-11-08T04:49:23.470Z,7.16
2022-11-08T04:55:26.101Z,6.96
2022-11-08T05:01:38.658Z,6.70
2022-11-08T05:07:48.168Z,6.46
2022-11-08T05:13:31.552Z,6.20
2022-11-08T05:19:13.162Z,6.02
2022-11-08T05:25:00.102Z,5.87
2022-11-08T05:30:56.418Z,5.85
2022-11-08T05:37:01.815Z,5.97
2022-11-08T05:42:30.803Z,6.15
2022-11-08T05:48:24.620Z,6.28
2022-11-08T05:54:19.163Z,6.35
2022-11-08T06:00:26.746Z,6.47
2022-11-08T06:06:29.969Z,6.56
2022-11-08T06:12:44.068Z,6.61
2022-11-08T06:18:35.677Z,6.64
2022-11-08T06:24:28.858Z,6.74
2022-11-08T06:30:08.578Z,6.83
2022-11-08T06:35:31.341Z,6.91
2022-11-08T06:40:54.512Z,7.06
2022-11-08T06:47:10.872Z,7.18
2022-11-08T06:53:42.858Z,7.30
2022-11-08T06:59:34.977Z,7.39
2022-11-08T07:04:59.212Z,7.52
2022-11-08T07:10:42.824Z,7.67
2022-11-08T07:16:15.938Z,7.79
2022-11-08T07:21:54.925Z,7.88
2022-11-08T07:27:22.071Z,8.02
2022-11-08T07:33:44.170Z,8.16
2022-11-08T07:40:27.891Z,8.30
2022-11-08T07:47:13.610Z,8.46
2022-11-08T07:53:26.154Z,8.74
2022-11-08T07:59:29.813Z,9.00
2022-11-08T08:05:47.873Z,9.20
2022-11-08T08:11:33.655Z,9.40
2022-11-08T08:18:18.803Z,9.63
2022-11-08T08:25:08.790Z,9.91
2022-11-08T08:32:08.510Z,10.11
2022-11-08T08:38:18.575Z,10.26
2022-11-08T08:44:57.679Z,10.43
2022-11-08T08:51:00.086Z,10.64
2022-11-08T08:57:05.713Z,10.77
2022-11-08T09:03:47.247Z,10.89
2022-11-08T09:10:30.540Z,11.02
2022-11-08T09:16:58.643Z,11.17
2022-11-08T09:48:27.659Z,12.16
2022-11-08T10:01:02.179Z,12.55
2022-11-08T10:07:00.880Z,12.83
2022-11-08T10:13:15.979Z,13.04
2022-11-08T10:25:14.851Z,13.23
2022-11-08T10:31:07.029Z,13.41
2022-11-08T10:37:56.360Z,13.57
2022-11-08T11:02:07.751Z,14.25
2022-11-08T11:07:50.702Z,14.42
2022-11-08T11:13:39.540Z,14.64
2022-11-08T11:26:41.689Z,14.90
2022-11-08T11:32:51.400Z,14.93
2022-11-08T11:38:35.909Z,14.96
2022-11-08T11:44:24.756Z,15.01
2022-11-08T11:56:58.622Z,15.26
2022-11-08T14:09:46.850Z,20.42
2022-11-08T14:16:34.641Z,20.50
2022-11-08T14:23:24.182Z,20.59
2022-11-08T14:30:13.321Z,20.50
2022-11-08T14:36:57.710Z,20.37
2022-11-08T14:56:57.869Z,19.54
2022-11-08T15:03:56.559Z,19.14
2022-11-08T15:10:41.016Z,18.82
2022-11-08T15:17:36.852Z,18.51
2022-11-08T15:43:22.199Z,17.54
2022-11-08T15:50:19.768Z,17.37
2022-11-08T15:56:56.147Z,16.49
2022-11-08T16:02:44.031Z,15.65
2022-11-08T16:08:17.021Z,14.99
2022-11-08T16:13:43.622Z,14.44
2022-11-08T16:19:34.544Z,13.94
2022-11-08T16:32:49.469Z,12.91
2022-11-08T16:38:11.990Z,12.59
2022-11-08T16:43:34.329Z,12.30
2022-11-08T16:50:01.882Z,12.06
2022-11-08T17:03:30.184Z,11.51
2022-11-08T17:08:54.559Z,11.43
2022-11-08T17:40:02.473Z,10.72
2022-11-08T17:45:26.613Z,10.70
2022-11-08T17:50:51.213Z,10.68
2022-11-08T17:56:17.742Z,10.64
2022-11-08T18:01:44.323Z,10.53
2022-11-08T18:07:12.004Z,10.41
2022-11-08T18:12:37.912Z,10.32
2022-11-08T18:26:44.892Z,10.30
2022-11-08T18:39:11.323Z,10.13
2022-11-08T18:44:56.043Z,10.03
2022-11-08T18:50:24.675Z,9.98
2022-11-08T18:56:29.620Z,9.91
2022-11-08T19:02:23.478Z,9.82
2022-11-08T19:08:18.960Z,9.73
2022-11-08T19:14:08.165Z,9.63
2022-11-08T19:19:59.275Z,9.60
2022-11-08T19:26:24.910Z,9.56
2022-11-08T19:32:54.807Z,9.50
2022-11-08T19:39:35.776Z,9.42
2022-11-08T19:45:27.905Z,9.40
2022-11-08T19:51:29.214Z,9.38
2022-11-08T19:57:46.581Z,9.32
2022-11-08T20:03:45.220Z,9.25
2022-11-08T20:10:20.355Z,9.23
2022-11-08T20:16:32.069Z,9.18
2022-11-08T20:23:14.406Z,9.10
2022-11-08T20:30:45.341Z,9.03
2022-11-08T20:36:14.667Z,9.01
2022-11-08T20:41:47.325Z,8.98
2022-11-08T20:47:10.773Z,8.93
2022-11-08T20:52:33.605Z,8.92
2022-11-08T20:58:00.454Z,8.90
2022-11-08T21:03:24.925Z,8.84
2022-11-08T21:08:59.225Z,8.76
2022-11-08T21:14:28.222Z,8.74
2022-11-08T21:19:52.183Z,8.73
2022-11-08T21:25:17.802Z,8.69
2022-11-08T21:30:46.203Z,8.69
2022-11-08T21:36:10.549Z,8.70
2022-11-08T21:41:40.716Z,8.66
2022-11-08T21:47:12.357Z,8.61
2022-11-08T21:52:36.170Z,8.61
2022-11-08T21:58:08.552Z,8.60
2022-11-08T22:03:33.861Z,8.56
2022-11-08T22:08:57.142Z,8.56
2022-11-08T22:14:19.808Z,8.53
2022-11-08T22:19:43.723Z,8.51
2022-11-08T22:25:11.979Z,8.45
2022-11-08T22:30:38.373Z,8.43
2022-11-08T22:36:04.275Z,8.41
2022-11-08T22:41:28.552Z,8.36
2022-11-08T22:46:52.093Z,8.37
2022-11-08T22:52:16.809Z,8.38
2022-11-08T22:58:21.545Z,8.36
2022-11-08T23:04:14.074Z,8.40
2022-11-08T23:09:40.351Z,8.37
2022-11-08T23:15:42.947Z,8.32
2022-11-08T23:21:30.008Z,8.29
2022-11-08T23:27:13.550Z,8.27
2022-11-08T23:32:46.697Z,8.27
2022-11-08T23:38:13.820Z,8.31
2022-11-08T23:43:55.304Z,8.31
2022-11-08T23:49:36.267Z,8.27
2022-11-08T23:55:01.610Z,8.28
